sensor_id;sensor_type;location;lat;lon;timestamp;pressure;altitude;pressure_sealevel;temperature;humidity
21728;BME280;11026;50.560;17.852;2023-02-18T00:01:37;99335.19;;;8.94;100.00
21728;BME280;11026;50.560;17.852;2023-02-18T00:04:06;99350.00;;;8.76;100.00
21728;BME280;11026;50.560;17.852;2023-02-18T00:06:35;99353.41;;;8.78;100.00
21728;BME280;11026;50.560;17.852;2023-02-18T00:09:04;99349.72;;;8.82;100.00
21728;BME280;11026;50.560;17.852;2023-02-18T00:11:34;99345.28;;;8.84;100.00
21728;BME280;11026;50.560;17.852;2023-02-18T00:14:07;99351.88;;;8.73;100.00
21728;BME280;11026;50.560;17.852;2023-02-18T00:16:35;99350.91;;;8.75;100.00
21728;BME280;11026;50.560;17.852;2023-02-18T00:19:05;99356.88;;;8.80;100.00
21728;BME280;11026;50.560;17.852;2023-02-18T00:21:34;99340.19;;;8.80;100.00
21728;BME280;11026;50.560;17.852;2023-02-18T00:24:03;99362.50;;;8.71;100.00
21728;BME280;11026;50.560;17.852;2023-02-18T00:26:31;99345.47;;;8.80;100.00
21728;BME280;11026;50.560;17.852;2023-02-18T00:28:59;99346.13;;;8.85;100.00
21728;BME280;11026;50.560;17.852;2023-02-18T00:31:32;99362.56;;;8.92;100.00
21728;BME280;11026;50.560;17.852;2023-02-18T00:34:01;99355.41;;;8.95;100.00
21728;BME280;11026;50.560;17.852;2023-02-18T00:36:29;99355.13;;;9.01;99.41
21728;BME280;11026;50.560;17.852;2023-02-18T00:38:58;99351.34;;;9.08;94.58
21728;BME280;11026;50.560;17.852;2023-02-18T00:41:28;99332.75;;;9.11;91.49
21728;BME280;11026;50.560;17.852;2023-02-18T00:43:58;99367.34;;;9.04;92.07
21728;BME280;11026;50.560;17.852;2023-02-18T00:46:28;99356.72;;;9.05;88.87
21728;BME280;11026;50.560;17.852;2023-02-18T00:48:56;99372.31;;;8.90;89.19
21728;BME280;11026;50.560;17.852;2023-02-18T00:51:24;99381.16;;;8.89;88.87
21728;BME280;11026;50.560;17.852;2023-02-18T00:53:52;99375.13;;;8.85;88.64
21728;BME280;11026;50.560;17.852;2023-02-18T00:56:19;99351.47;;;8.83;85.62
21728;BME280;11026;50.560;17.852;2023-02-18T00:58:47;99355.81;;;8.84;81.27
21728;BME280;11026;50.560;17.852;2023-02-18T01:01:18;99377.00;;;8.83;79.81
21728;BME280;11026;50.560;17.852;2023-02-18T01:03:46;99396.34;;;8.82;78.08
21728;BME280;11026;50.560;17.852;2023-02-18T01:06:13;99394.97;;;8.95;74.04
21728;BME280;11026;50.560;17.852;2023-02-18T01:08:41;99375.03;;;8.88;74.68
21728;BME280;11026;50.560;17.852;2023-02-18T01:11:10;99383.06;;;8.85;74.65
21728;BME280;11026;50.560;17.852;2023-02-18T01:13:39;99369.41;;;8.74;76.14
21728;BME280;11026;50.560;17.852;2023-02-18T01:16:13;99350.97;;;8.74;74.92
21728;BME280;11026;50.560;17.852;2023-02-18T01:18:41;99360.56;;;8.75;75.41
21728;BME280;11026;50.560;17.852;2023-02-18T01:21:09;99364.81;;;8.79;75.21
21728;BME280;11026;50.560;17.852;2023-02-18T01:23:38;99378.06;;;8.77;76.21
21728;BME280;11026;50.560;17.852;2023-02-18T01:26:06;99371.28;;;8.72;76.66
21728;BME280;11026;50.560;17.852;2023-02-18T01:28:34;99354.72;;;8.68;77.59
21728;BME280;11026;50.560;17.852;2023-02-18T01:31:08;99351.25;;;8.66;78.05
21728;BME280;11026;50.560;17.852;2023-02-18T01:33:37;99366.28;;;8.64;78.46
21728;BME280;11026;50.560;17.852;2023-02-18T01:36:06;99375.63;;;8.49;79.51
21728;BME280;11026;50.560;17.852;2023-02-18T01:38:35;99370.91;;;8.34;80.73
21728;BME280;11026;50.560;17.852;2023-02-18T01:41:03;99378.28;;;8.49;80.87
21728;BME280;11026;50.560;17.852;2023-02-18T01:43:36;99384.00;;;8.37;81.73
21728;BME280;11026;50.560;17.852;2023-02-18T01:46:18;99380.88;;;8.26;82.56
21728;BME280;11026;50.560;17.852;2023-02-18T01:51:29;99382.66;;;8.25;83.22
21728;BME280;11026;50.560;17.852;2023-02-18T01:54:19;99381.53;;;8.07;84.26
21728;BME280;11026;50.560;17.852;2023-02-18T01:57:19;99377.78;;;8.14;83.39
21728;BME280;11026;50.560;17.852;2023-02-18T01:59:54;99412.94;;;8.13;82.56
21728;BME280;11026;50.560;17.852;2023-02-18T02:02:27;99391.69;;;8.18;79.84
21728;BME280;11026;50.560;17.852;2023-02-18T02:04:54;99376.44;;;8.28;76.47
21728;BME280;11026;50.560;17.852;2023-02-18T02:07:23;99400.63;;;8.39;67.35
21728;BME280;11026;50.560;17.852;2023-02-18T02:09:53;99360.03;;;8.67;60.91
21728;BME280;11026;50.560;17.852;2023-02-18T02:15:40;99395.59;;;8.56;59.30
21728;BME280;11026;50.560;17.852;2023-02-18T02:21:19;99378.28;;;8.49;59.63
21728;BME280;11026;50.560;17.852;2023-02-18T02:27:12;99395.72;;;8.28;59.52
21728;BME280;11026;50.560;17.852;2023-02-18T02:30:18;99414.56;;;8.18;60.58
21728;BME280;11026;50.560;17.852;2023-02-18T02:35:53;99426.50;;;8.03;61.73
21728;BME280;11026;50.560;17.852;2023-02-18T02:38:33;99422.22;;;8.00;62.14
21728;BME280;11026;50.560;17.852;2023-02-18T02:46:53;99410.16;;;7.93;63.41
21728;BME280;11026;50.560;17.852;2023-02-18T02:52:12;99419.88;;;7.91;62.94
21728;BME280;11026;50.560;17.852;2023-02-18T02:54:42;99422.16;;;8.02;62.26
21728;BME280;11026;50.560;17.852;2023-02-18T02:59:45;99437.25;;;8.22;60.45
21728;BME280;11026;50.560;17.852;2023-02-18T03:02:28;99423.50;;;8.13;61.52
21728;BME280;11026;50.560;17.852;2023-02-18T03:21:40;99427.25;;;8.06;55.89
21728;BME280;11026;50.560;17.852;2023-02-18T03:24:15;99437.03;;;8.03;54.89
21728;BME280;11026;50.560;17.852;2023-02-18T03:26:50;99417.25;;;7.91;55.26
21728;BME280;11026;50.560;17.852;2023-02-18T03:29:20;99441.81;;;7.92;53.20
21728;BME280;11026;50.560;17.852;2023-02-18T03:31:52;99412.53;;;8.01;51.77
21728;BME280;11026;50.560;17.852;2023-02-18T03:34:27;99433.59;;;8.01;51.83
21728;BME280;11026;50.560;17.852;2023-02-18T03:36:57;99420.59;;;7.96;52.56
21728;BME280;11026;50.560;17.852;2023-02-18T03:39:32;99424.94;;;7.97;51.25
21728;BME280;11026;50.560;17.852;2023-02-18T03:42:01;99434.78;;;7.92;51.63
21728;BME280;11026;50.560;17.852;2023-02-18T03:44:29;99441.78;;;7.93;51.04
21728;BME280;11026;50.560;17.852;2023-02-18T03:46:57;99431.44;;;7.87;51.77
21728;BME280;11026;50.560;17.852;2023-02-18T03:49:24;99445.03;;;7.75;53.37
21728;BME280;11026;50.560;17.852;2023-02-18T03:51:52;99442.28;;;7.78;51.93
21728;BME280;11026;50.560;17.852;2023-02-18T03:54:20;99441.84;;;7.65;53.21
21728;BME280;11026;50.560;17.852;2023-02-18T03:56:47;99448.16;;;7.59;53.19
21728;BME280;11026;50.560;17.852;2023-02-18T03:59:15;99443.16;;;7.78;51.32
21728;BME280;11026;50.560;17.852;2023-02-18T04:01:42;99446.81;;;7.74;51.70
21728;BME280;11026;50.560;17.852;2023-02-18T04:04:16;99440.25;;;7.61;52.70
21728;BME280;11026;50.560;17.852;2023-02-18T04:06:43;99450.19;;;7.51;52.64
21728;BME280;11026;50.560;17.852;2023-02-18T04:09:12;99460.81;;;7.48;52.66
21728;BME280;11026;50.560;17.852;2023-02-18T04:11:41;99456.13;;;7.58;52.99
21728;BME280;11026;50.560;17.852;2023-02-18T04:14:15;99459.00;;;7.50;52.65
21728;BME280;11026;50.560;17.852;2023-02-18T04:16:43;99473.47;;;7.37;53.19
21728;BME280;11026;50.560;17.852;2023-02-18T04:19:10;99480.63;;;7.33;52.69
21728;BME280;11026;50.560;17.852;2023-02-18T04:21:38;99468.22;;;7.37;52.45
21728;BME280;11026;50.560;17.852;2023-02-18T04:24:05;99470.41;;;7.23;53.73
21728;BME280;11026;50.560;17.852;2023-02-18T04:26:33;99492.13;;;7.29;52.93
21728;BME280;11026;50.560;17.852;2023-02-18T04:29:00;99479.69;;;7.34;52.40
21728;BME280;11026;50.560;17.852;2023-02-18T04:31:27;99492.53;;;7.45;51.94
21728;BME280;11026;50.560;17.852;2023-02-18T04:33:56;99468.97;;;7.41;52.26
21728;BME280;11026;50.560;17.852;2023-02-18T04:36:24;99471.09;;;7.29;52.19
21728;BME280;11026;50.560;17.852;2023-02-18T04:38:52;99487.91;;;7.24;52.53
21728;BME280;11026;50.560;17.852;2023-02-18T04:41:19;99482.56;;;7.27;52.21
21728;BME280;11026;50.560;17.852;2023-02-18T04:43:48;99493.28;;;7.21;52.25
21728;BME280;11026;50.560;17.852;2023-02-18T04:46:15;99479.94;;;7.27;51.36
21728;BME280;11026;50.560;17.852;2023-02-18T04:48:43;99489.66;;;7.53;49.21
21728;BME280;11026;50.560;17.852;2023-02-18T04:51:11;99485.25;;;7.53;49.63
21728;BME280;11026;50.560;17.852;2023-02-18T04:53:39;99487.66;;;7.33;50.19
21728;BME280;11026;50.560;17.852;2023-02-18T04:56:08;99488.78;;;7.52;49.29
21728;BME280;11026;50.560;17.852;2023-02-18T04:58:38;99483.16;;;7.36;49.71
21728;BME280;11026;50.560;17.852;2023-02-18T05:01:05;99487.44;;;7.39;50.41
21728;BME280;11026;50.560;17.852;2023-02-18T05:03:33;99505.94;;;7.36;49.90
21728;BME280;11026;50.560;17.852;2023-02-18T05:06:00;99477.22;;;7.30;50.99
21728;BME280;11026;50.560;17.852;2023-02-18T05:08:27;99490.97;;;7.38;49.80
21728;BME280;11026;50.560;17.852;2023-02-18T05:10:55;99495.72;;;7.27;50.99
21728;BME280;11026;50.560;17.852;2023-02-18T05:13:24;99505.44;;;7.25;49.95
21728;BME280;11026;50.560;17.852;2023-02-18T05:15:51;99495.19;;;7.44;49.66
21728;BME280;11026;50.560;17.852;2023-02-18T05:18:21;99503.44;;;7.33;49.76
21728;BME280;11026;50.560;17.852;2023-02-18T05:20:48;99513.56;;;7.45;48.72
21728;BME280;11026;50.560;17.852;2023-02-18T05:23:16;99508.94;;;7.25;50.77
21728;BME280;11026;50.560;17.852;2023-02-18T05:25:46;99509.31;;;7.41;48.97
21728;BME280;11026;50.560;17.852;2023-02-18T05:28:13;99517.00;;;7.47;49.36
21728;BME280;11026;50.560;17.852;2023-02-18T05:30:41;99500.19;;;7.25;50.60
21728;BME280;11026;50.560;17.852;2023-02-18T05:33:08;99518.47;;;7.56;48.34
21728;BME280;11026;50.560;17.852;2023-02-18T05:35:36;99526.59;;;7.50;49.20
21728;BME280;11026;50.560;17.852;2023-02-18T05:38:03;99487.34;;;7.42;49.88
21728;BME280;11026;50.560;17.852;2023-02-18T05:40:31;99510.13;;;7.43;49.89
21728;BME280;11026;50.560;17.852;2023-02-18T05:42:58;99498.31;;;7.56;49.11
21728;BME280;11026;50.560;17.852;2023-02-18T05:45:26;99509.16;;;7.46;49.62
21728;BME280;11026;50.560;17.852;2023-02-18T05:47:53;99514.47;;;7.44;49.85
21728;BME280;11026;50.560;17.852;2023-02-18T05:50:22;99520.06;;;7.61;48.89
21728;BME280;11026;50.560;17.852;2023-02-18T05:52:49;99527.63;;;7.44;50.84
21728;BME280;11026;50.560;17.852;2023-02-18T05:55:16;99526.34;;;7.57;49.50
21728;BME280;11026;50.560;17.852;2023-02-18T05:57:44;99519.53;;;7.50;50.29
21728;BME280;11026;50.560;17.852;2023-02-18T06:00:12;99533.63;;;7.49;50.43
21728;BME280;11026;50.560;17.852;2023-02-18T06:02:39;99533.41;;;7.55;50.03
21728;BME280;11026;50.560;17.852;2023-02-18T06:05:07;99541.69;;;7.43;50.92
21728;BME280;11026;50.560;17.852;2023-02-18T06:07:35;99537.28;;;7.44;50.96
21728;BME280;11026;50.560;17.852;2023-02-18T06:10:03;99545.78;;;7.24;52.02
21728;BME280;11026;50.560;17.852;2023-02-18T06:12:31;99544.03;;;7.24;52.96
21728;BME280;11026;50.560;17.852;2023-02-18T06:14:58;99532.31;;;7.34;52.57
21728;BME280;11026;50.560;17.852;2023-02-18T06:17:26;99539.13;;;7.42;51.71
21728;BME280;11026;50.560;17.852;2023-02-18T06:19:55;99538.69;;;7.55;51.03
21728;BME280;11026;50.560;17.852;2023-02-18T06:22:23;99543.28;;;7.49;52.28
21728;BME280;11026;50.560;17.852;2023-02-18T06:24:50;99543.47;;;7.43;52.24
21728;BME280;11026;50.560;17.852;2023-02-18T06:27:18;99531.56;;;7.59;51.38
21728;BME280;11026;50.560;17.852;2023-02-18T06:29:45;99550.91;;;7.58;51.49
21728;BME280;11026;50.560;17.852;2023-02-18T06:32:14;99545.81;;;7.52;52.48
21728;BME280;11026;50.560;17.852;2023-02-18T06:34:41;99551.34;;;7.71;51.21
21728;BME280;11026;50.560;17.852;2023-02-18T06:37:08;99552.34;;;7.68;52.09
21728;BME280;11026;50.560;17.852;2023-02-18T06:39:37;99569.31;;;7.58;52.17
21728;BME280;11026;50.560;17.852;2023-02-18T06:42:11;99552.97;;;7.75;51.14
21728;BME280;11026;50.560;17.852;2023-02-18T06:44:38;99576.28;;;7.60;51.66
21728;BME280;11026;50.560;17.852;2023-02-18T06:47:05;99564.84;;;7.60;53.01
21728;BME280;11026;50.560;17.852;2023-02-18T06:49:34;99571.75;;;7.64;52.44
21728;BME280;11026;50.560;17.852;2023-02-18T06:52:02;99563.81;;;7.66;52.67
21728;BME280;11026;50.560;17.852;2023-02-18T06:54:30;99561.09;;;7.69;52.61
21728;BME280;11026;50.560;17.852;2023-02-18T06:56:58;99559.22;;;7.72;52.61
21728;BME280;11026;50.560;17.852;2023-02-18T06:59:26;99556.31;;;7.80;52.29
21728;BME280;11026;50.560;17.852;2023-02-18T07:01:53;99566.25;;;7.72;53.86
21728;BME280;11026;50.560;17.852;2023-02-18T07:04:21;99580.53;;;7.64;52.57
21728;BME280;11026;50.560;17.852;2023-02-18T07:06:48;99565.50;;;7.68;53.77
21728;BME280;11026;50.560;17.852;2023-02-18T07:09:16;99559.22;;;7.72;53.61
21728;BME280;11026;50.560;17.852;2023-02-18T07:11:44;99572.91;;;7.55;55.31
21728;BME280;11026;50.560;17.852;2023-02-18T07:14:14;99547.94;;;7.69;53.32
21728;BME280;11026;50.560;17.852;2023-02-18T07:16:41;99550.25;;;7.78;53.86
21728;BME280;11026;50.560;17.852;2023-02-18T07:19:09;99561.91;;;7.71;54.35
21728;BME280;11026;50.560;17.852;2023-02-18T07:21:36;99580.41;;;7.68;53.88
21728;BME280;11026;50.560;17.852;2023-02-18T07:24:04;99569.50;;;7.80;54.32
21728;BME280;11026;50.560;17.852;2023-02-18T07:26:31;99545.69;;;7.83;53.37
21728;BME280;11026;50.560;17.852;2023-02-18T07:28:58;99560.19;;;7.70;55.06
21728;BME280;11026;50.560;17.852;2023-02-18T07:31:26;99572.72;;;7.61;56.21
21728;BME280;11026;50.560;17.852;2023-02-18T07:33:53;99552.03;;;7.77;54.63
21728;BME280;11026;50.560;17.852;2023-02-18T07:36:21;99558.16;;;7.78;54.81
21728;BME280;11026;50.560;17.852;2023-02-18T07:38:48;99567.22;;;7.69;56.86
21728;BME280;11026;50.560;17.852;2023-02-18T07:41:20;99560.34;;;7.92;55.76
21728;BME280;11026;50.560;17.852;2023-02-18T07:43:50;99550.69;;;7.92;56.00
21728;BME280;11026;50.560;17.852;2023-02-18T07:46:18;99552.66;;;7.85;56.97
21728;BME280;11026;50.560;17.852;2023-02-18T07:48:46;99568.50;;;7.84;57.76
21728;BME280;11026;50.560;17.852;2023-02-18T07:51:13;99540.03;;;7.95;56.96
21728;BME280;11026;50.560;17.852;2023-02-18T07:53:42;99542.78;;;7.92;57.29
21728;BME280;11026;50.560;17.852;2023-02-18T07:56:09;99550.69;;;7.92;57.27
21728;BME280;11026;50.560;17.852;2023-02-18T07:58:40;99544.28;;;7.99;57.66
21728;BME280;11026;50.560;17.852;2023-02-18T08:01:11;99549.94;;;7.87;58.17
21728;BME280;11026;50.560;17.852;2023-02-18T08:03:41;99565.41;;;7.98;57.88
21728;BME280;11026;50.560;17.852;2023-02-18T08:06:21;99547.56;;;8.06;57.94
21728;BME280;11026;50.560;17.852;2023-02-18T08:08:51;99550.78;;;7.89;59.43
21728;BME280;11026;50.560;17.852;2023-02-18T08:11:19;99547.16;;;7.92;59.01
21728;BME280;11026;50.560;17.852;2023-02-18T08:13:47;99539.22;;;7.93;59.27
21728;BME280;11026;50.560;17.852;2023-02-18T08:16:18;99549.34;;;8.05;58.56
21728;BME280;11026;50.560;17.852;2023-02-18T08:18:47;99536.03;;;8.10;58.15
21728;BME280;11026;50.560;17.852;2023-02-18T08:21:18;99556.84;;;8.18;58.07
21728;BME280;11026;50.560;17.852;2023-02-18T08:23:48;99547.72;;;8.28;58.47
21728;BME280;11026;50.560;17.852;2023-02-18T08:26:16;99565.44;;;8.23;57.42
21728;BME280;11026;50.560;17.852;2023-02-18T08:28:45;99558.56;;;8.19;57.91
21728;BME280;11026;50.560;17.852;2023-02-18T08:31:25;99549.22;;;8.35;57.90
21728;BME280;11026;50.560;17.852;2023-02-18T08:33:55;99558.41;;;8.23;58.44
21728;BME280;11026;50.560;17.852;2023-02-18T08:36:23;99545.78;;;8.33;56.97
21728;BME280;11026;50.560;17.852;2023-02-18T08:38:53;99551.00;;;8.34;58.35
21728;BME280;11026;50.560;17.852;2023-02-18T08:41:20;99551.16;;;8.30;57.71
21728;BME280;11026;50.560;17.852;2023-02-18T08:43:48;99538.94;;;8.27;59.86
21728;BME280;11026;50.560;17.852;2023-02-18T08:46:16;99549.53;;;8.26;60.05
21728;BME280;11026;50.560;17.852;2023-02-18T08:49:00;99559.97;;;8.29;60.98
21728;BME280;11026;50.560;17.852;2023-02-18T08:51:28;99571.38;;;8.29;60.17
21728;BME280;11026;50.560;17.852;2023-02-18T08:53:58;99554.31;;;8.41;58.70
21728;BME280;11026;50.560;17.852;2023-02-18T08:56:26;99567.41;;;8.44;58.33
21728;BME280;11026;50.560;17.852;2023-02-18T08:58:53;99560.28;;;8.46;56.89
21728;BME280;11026;50.560;17.852;2023-02-18T09:01:20;99578.63;;;8.49;57.78
21728;BME280;11026;50.560;17.852;2023-02-18T09:03:48;99566.38;;;8.48;57.53
21728;BME280;11026;50.560;17.852;2023-02-18T09:06:16;99584.31;;;8.64;56.08
21728;BME280;11026;50.560;17.852;2023-02-18T09:08:44;99531.22;;;8.73;56.48
21728;BME280;11026;50.560;17.852;2023-02-18T09:11:14;99576.09;;;8.46;54.59
21728;BME280;11026;50.560;17.852;2023-02-18T09:13:42;99573.84;;;8.34;55.89
21728;BME280;11026;50.560;17.852;2023-02-18T09:16:15;99579.09;;;8.35;53.78
21728;BME280;11026;50.560;17.852;2023-02-18T09:18:46;99579.44;;;8.25;55.21
21728;BME280;11026;50.560;17.852;2023-02-18T09:21:21;99563.25;;;8.37;55.93
21728;BME280;11026;50.560;17.852;2023-02-18T09:23:49;99568.34;;;8.42;56.93
21728;BME280;11026;50.560;17.852;2023-02-18T09:26:19;99586.03;;;8.38;56.21
21728;BME280;11026;50.560;17.852;2023-02-18T09:28:52;99577.31;;;8.36;55.91
21728;BME280;11026;50.560;17.852;2023-02-18T09:31:22;99567.91;;;8.27;56.35
21728;BME280;11026;50.560;17.852;2023-02-18T09:33:54;99576.41;;;8.10;57.63
21728;BME280;11026;50.560;17.852;2023-02-18T09:36:22;99562.63;;;8.02;59.78
21728;BME280;11026;50.560;17.852;2023-02-18T09:38:49;99583.16;;;7.93;58.84
21728;BME280;11026;50.560;17.852;2023-02-18T09:42:10;99573.38;;;7.96;59.72
21728;BME280;11026;50.560;17.852;2023-02-18T09:44:37;99571.53;;;7.98;59.83
21728;BME280;11026;50.560;17.852;2023-02-18T09:47:14;99583.41;;;7.85;59.47
21728;BME280;11026;50.560;17.852;2023-02-18T09:49:47;99570.63;;;7.73;60.28
21728;BME280;11026;50.560;17.852;2023-02-18T09:52:19;99566.25;;;7.72;59.97
21728;BME280;11026;50.560;17.852;2023-02-18T09:54:50;99560.59;;;7.84;59.56
21728;BME280;11026;50.560;17.852;2023-02-18T10:00:03;99579.16;;;7.51;61.92
21728;BME280;11026;50.560;17.852;2023-02-18T10:02:33;99590.56;;;7.52;62.92
21728;BME280;11026;50.560;17.852;2023-02-18T10:05:04;99575.19;;;7.38;64.85
21728;BME280;11026;50.560;17.852;2023-02-18T10:07:32;99553.44;;;7.61;63.05
21728;BME280;11026;50.560;17.852;2023-02-18T10:10:15;99566.69;;;7.58;64.45
21728;BME280;11026;50.560;17.852;2023-02-18T10:12:44;99567.00;;;7.49;64.44
21728;BME280;11026;50.560;17.852;2023-02-18T10:15:20;99553.84;;;7.47;65.01
21728;BME280;11026;50.560;17.852;2023-02-18T10:17:49;99551.31;;;7.44;66.31
21728;BME280;11026;50.560;17.852;2023-02-18T10:20:21;99544.00;;;7.54;66.89
21728;BME280;11026;50.560;17.852;2023-02-18T10:22:50;99541.78;;;7.40;67.62
21728;BME280;11026;50.560;17.852;2023-02-18T10:25:22;99541.69;;;7.15;69.91
21728;BME280;11026;50.560;17.852;2023-02-18T10:27:52;99527.44;;;7.22;71.65
21728;BME280;11026;50.560;17.852;2023-02-18T10:30:32;99524.81;;;7.22;74.28
21728;BME280;11026;50.560;17.852;2023-02-18T10:35:53;99526.69;;;7.47;70.17
21728;BME280;11026;50.560;17.852;2023-02-18T10:41:40;99511.28;;;7.34;72.52
21728;BME280;11026;50.560;17.852;2023-02-18T10:50:01;99490.22;;;7.06;73.45
21728;BME280;11026;50.560;17.852;2023-02-18T10:52:34;99490.00;;;7.12;75.24
21728;BME280;11026;50.560;17.852;2023-02-18T10:55:06;99470.41;;;7.23;75.85
21728;BME280;11026;50.560;17.852;2023-02-18T10:57:53;99472.97;;;7.24;74.51
21728;BME280;11026;50.560;17.852;2023-02-18T11:00:24;99481.03;;;7.20;74.36
21728;BME280;11026;50.560;17.852;2023-02-18T11:03:15;99473.56;;;7.34;75.95
21728;BME280;11026;50.560;17.852;2023-02-18T11:05:45;99461.28;;;7.34;76.04
21728;BME280;11026;50.560;17.852;2023-02-18T11:08:18;99457.81;;;7.32;75.88
21728;BME280;11026;50.560;17.852;2023-02-18T11:10:48;99448.66;;;7.44;76.96
21728;BME280;11026;50.560;17.852;2023-02-18T11:13:28;99446.09;;;7.43;76.34
21728;BME280;11026;50.560;17.852;2023-02-18T11:16:08;99450.19;;;7.51;75.98
21728;BME280;11026;50.560;17.852;2023-02-18T11:18:43;99440.50;;;7.53;75.55
21728;BME280;11026;50.560;17.852;2023-02-18T11:21:28;99433.03;;;7.66;74.75
21728;BME280;11026;50.560;17.852;2023-02-18T11:24:13;99425.31;;;7.61;75.18
21728;BME280;11026;50.560;17.852;2023-02-18T11:26:42;99414.78;;;7.61;74.75
21728;BME280;11026;50.560;17.852;2023-02-18T11:29:22;99413.66;;;7.69;74.24
21728;BME280;11026;50.560;17.852;2023-02-18T11:31:52;99403.25;;;7.64;74.75
21728;BME280;11026;50.560;17.852;2023-02-18T11:34:25;99405.25;;;7.57;75.99
21728;BME280;11026;50.560;17.852;2023-02-18T11:36:53;99395.22;;;7.69;75.07
21728;BME280;11026;50.560;17.852;2023-02-18T11:39:23;99389.03;;;7.70;75.67
21728;BME280;11026;50.560;17.852;2023-02-18T11:41:58;99396.34;;;7.61;76.38
21728;BME280;11026;50.560;17.852;2023-02-18T11:44:50;99381.97;;;7.45;77.83
21728;BME280;11026;50.560;17.852;2023-02-18T11:47:33;99383.59;;;7.49;78.90
21728;BME280;11026;50.560;17.852;2023-02-18T11:52:43;99372.34;;;7.44;78.19
21728;BME280;11026;50.560;17.852;2023-02-18T11:55:20;99364.84;;;7.32;80.00
21728;BME280;11026;50.560;17.852;2023-02-18T11:58:08;99351.88;;;7.27;80.99
21728;BME280;11026;50.560;17.852;2023-02-18T12:00:43;99340.38;;;7.30;82.42
21728;BME280;11026;50.560;17.852;2023-02-18T12:03:43;99336.00;;;7.55;80.99
21728;BME280;11026;50.560;17.852;2023-02-18T12:06:32;99327.06;;;7.34;81.12
21728;BME280;11026;50.560;17.852;2023-02-18T12:09:17;99330.66;;;7.32;82.65
21728;BME280;11026;50.560;17.852;2023-02-18T12:11:59;99314.06;;;7.30;83.32
21728;BME280;11026;50.560;17.852;2023-02-18T12:14:28;99307.44;;;7.45;82.60
21728;BME280;11026;50.560;17.852;2023-02-18T12:20:26;99278.34;;;7.73;81.26
21728;BME280;11026;50.560;17.852;2023-02-18T12:23:13;99264.72;;;7.61;81.35
21728;BME280;11026;50.560;17.852;2023-02-18T12:28:50;99256.13;;;8.03;81.22
21728;BME280;11026;50.560;17.852;2023-02-18T12:40:03;99237.94;;;7.97;85.35
21728;BME280;11026;50.560;17.852;2023-02-18T12:48:10;99214.69;;;8.08;89.67
21728;BME280;11026;50.560;17.852;2023-02-18T12:56:34;99202.13;;;7.92;92.32
21728;BME280;11026;50.560;17.852;2023-02-18T13:02:25;99187.91;;;7.74;93.43
21728;BME280;11026;50.560;17.852;2023-02-18T13:13:41;99172.75;;;7.33;97.58
21728;BME280;11026;50.560;17.852;2023-02-18T13:16:18;99150.38;;;7.45;96.90
21728;BME280;11026;50.560;17.852;2023-02-18T13:19:15;99121.44;;;7.45;98.28
21728;BME280;11026;50.560;17.852;2023-02-18T13:21:49;99149.66;;;7.17;100.00
21728;BME280;11026;50.560;17.852;2023-02-18T13:24:35;99127.09;;;7.34;99.08
21728;BME280;11026;50.560;17.852;2023-02-18T13:27:47;99107.53;;;7.18;99.68
21728;BME280;11026;50.560;17.852;2023-02-18T13:30:33;99096.63;;;7.29;100.00
21728;BME280;11026;50.560;17.852;2023-02-18T13:35:41;99098.72;;;7.19;100.00
21728;BME280;11026;50.560;17.852;2023-02-18T13:41:10;99090.44;;;7.06;100.00
21728;BME280;11026;50.560;17.852;2023-02-18T13:43:37;99076.72;;;6.98;100.00
21728;BME280;11026;50.560;17.852;2023-02-18T13:49:02;99054.34;;;7.10;100.00
21728;BME280;11026;50.560;17.852;2023-02-18T13:51:44;99045.16;;;6.98;100.00
21728;BME280;11026;50.560;17.852;2023-02-18T13:57:14;99028.44;;;6.76;100.00
21728;BME280;11026;50.560;17.852;2023-02-18T13:59:57;99014.72;;;6.68;100.00
21728;BME280;11026;50.560;17.852;2023-02-18T14:04:55;99016.44;;;6.69;100.00
21728;BME280;11026;50.560;17.852;2023-02-18T14:20:47;98962.03;;;6.47;100.00
21728;BME280;11026;50.560;17.852;2023-02-18T14:26:03;98965.09;;;6.35;100.00
21728;BME280;11026;50.560;17.852;2023-02-18T14:28:52;98953.00;;;6.31;100.00
21728;BME280;11026;50.560;17.852;2023-02-18T14:31:34;98941.09;;;6.21;100.00
21728;BME280;11026;50.560;17.852;2023-02-18T14:42:36;98940.91;;;6.25;100.00
21728;BME280;11026;50.560;17.852;2023-02-18T14:47:55;98938.94;;;6.32;100.00
21728;BME280;11026;50.560;17.852;2023-02-18T14:50:38;98941.50;;;6.33;100.00
21728;BME280;11026;50.560;17.852;2023-02-18T14:53:13;98934.78;;;6.26;100.00
21728;BME280;11026;50.560;17.852;2023-02-18T14:55:48;98917.25;;;6.27;100.00
21728;BME280;11026;50.560;17.852;2023-02-18T15:00:57;98906.91;;;6.22;100.00
21728;BME280;11026;50.560;17.852;2023-02-18T15:03:31;98901.69;;;6.21;100.00
21728;BME280;11026;50.560;17.852;2023-02-18T15:05:59;98889.50;;;6.20;100.00
21728;BME280;11026;50.560;17.852;2023-02-18T15:08:36;98889.59;;;6.16;100.00
21728;BME280;11026;50.560;17.852;2023-02-18T15:11:06;98880.69;;;6.21;100.00
21728;BME280;11026;50.560;17.852;2023-02-18T15:13:36;98875.91;;;6.32;100.00
21728;BME280;11026;50.560;17.852;2023-02-18T15:16:08;98872.88;;;6.43;100.00
21728;BME280;11026;50.560;17.852;2023-02-18T15:18:42;98879.44;;;6.54;100.00
21728;BME280;11026;50.560;17.852;2023-02-18T15:21:28;98862.84;;;6.54;100.00
21728;BME280;11026;50.560;17.852;2023-02-18T15:24:29;98872.53;;;6.52;100.00
21728;BME280;11026;50.560;17.852;2023-02-18T15:26:58;98860.94;;;6.57;100.00
21728;BME280;11026;50.560;17.852;2023-02-18T15:29:28;98848.09;;;6.72;100.00
21728;BME280;11026;50.560;17.852;2023-02-18T15:31:56;98840.88;;;6.77;100.00
21728;BME280;11026;50.560;17.852;2023-02-18T15:34:36;98847.88;;;6.78;100.00
21728;BME280;11026;50.560;17.852;2023-02-18T15:37:07;98847.03;;;6.77;100.00
21728;BME280;11026;50.560;17.852;2023-02-18T15:39:52;98836.25;;;6.83;100.00
21728;BME280;11026;50.560;17.852;2023-02-18T15:42:28;98853.44;;;6.70;100.00
21728;BME280;11026;50.560;17.852;2023-02-18T15:45:08;98840.84;;;6.78;100.00